createdAt,value
2023-09-06T00:00:27.940Z,84.23
2023-09-06T00:02:54.677Z,84.00
2023-09-06T00:05:21.080Z,84.33
2023-09-06T00:07:47.497Z,83.97
2023-09-06T00:10:13.923Z,84.10
2023-09-06T00:12:40.344Z,84.15
2023-09-06T00:15:06.776Z,84.28
2023-09-06T00:17:33.175Z,84.00
2023-09-06T00:19:59.623Z,84.04
2023-09-06T00:22:26.062Z,83.91
2023-09-06T00:24:52.512Z,84.32
2023-09-06T00:27:18.934Z,84.32
2023-09-06T00:29:45.554Z,84.15
2023-09-06T00:32:12.007Z,84.43
2023-09-06T00:34:38.425Z,84.34
2023-09-06T00:37:04.838Z,84.35
2023-09-06T00:39:31.303Z,84.17
2023-09-06T00:41:57.796Z,84.40
2023-09-06T00:44:24.230Z,84.20
2023-09-06T00:46:50.676Z,84.29
2023-09-06T00:49:17.209Z,84.62
2023-09-06T00:51:44.616Z,84.60
2023-09-06T00:54:11.078Z,84.41
2023-09-06T00:56:37.475Z,84.42
2023-09-06T00:59:03.878Z,84.37
2023-09-06T01:01:30.808Z,84.58
2023-09-06T01:03:57.441Z,84.35
2023-09-06T01:06:23.876Z,84.44
2023-09-06T01:08:50.494Z,84.37
2023-09-06T01:11:16.897Z,84.63
2023-09-06T01:13:43.518Z,84.72
2023-09-06T01:16:10.221Z,84.61
2023-09-06T01:18:36.923Z,84.42
2023-09-06T01:21:03.393Z,84.57
2023-09-06T01:23:29.768Z,84.52
2023-09-06T01:25:56.224Z,84.53
2023-09-06T01:28:22.848Z,84.63
2023-09-06T01:30:49.601Z,84.62
2023-09-06T01:33:16.650Z,84.48
2023-09-06T01:35:43.037Z,84.62
2023-09-06T01:38:09.429Z,84.47
2023-09-06T01:40:35.813Z,84.63
2023-09-06T01:43:02.217Z,84.59
2023-09-06T01:45:28.642Z,84.58
2023-09-06T01:47:55.377Z,84.59
2023-09-06T01:50:21.820Z,84.47
2023-09-06T01:52:48.211Z,84.64
2023-09-06T01:55:14.675Z,84.69
2023-09-06T01:57:41.243Z,84.54
2023-09-06T02:00:07.884Z,84.57
2023-09-06T02:02:34.320Z,84.58
2023-09-06T02:05:00.749Z,84.54
2023-09-06T02:07:27.358Z,84.51
2023-09-06T02:09:53.789Z,84.48
2023-09-06T02:12:20.198Z,84.38
2023-09-06T02:14:46.630Z,84.73
2023-09-06T02:17:13.069Z,84.64
2023-09-06T02:19:39.710Z,84.45
2023-09-06T02:22:06.168Z,84.35
2023-09-06T02:24:32.567Z,84.66
2023-09-06T02:26:59.002Z,84.68
2023-09-06T02:29:25.419Z,84.54
2023-09-06T02:31:51.926Z,84.49
2023-09-06T02:34:18.396Z,84.54
2023-09-06T02:36:45.109Z,84.62
2023-09-06T02:39:11.589Z,84.58
2023-09-06T02:41:37.972Z,84.50
2023-09-06T02:44:04.564Z,84.48
2023-09-06T02:46:31.053Z,84.61
2023-09-06T02:48:57.470Z,84.76
2023-09-06T02:51:23.869Z,84.62
2023-09-06T02:53:50.253Z,84.56
2023-09-06T02:56:16.672Z,84.71
2023-09-06T02:58:43.094Z,84.58
2023-09-06T03:01:09.779Z,84.65
2023-09-06T03:03:36.435Z,84.46
2023-09-06T03:06:02.941Z,84.58
2023-09-06T03:08:30.384Z,84.69
2023-09-06T03:10:57.539Z,84.58
2023-09-06T03:13:23.957Z,84.76
2023-09-06T03:15:50.634Z,84.57
2023-09-06T03:18:17.255Z,84.52
2023-09-06T03:20:43.641Z,84.71
2023-09-06T03:23:10.183Z,84.53
2023-09-06T03:25:36.876Z,84.73
2023-09-06T03:28:03.302Z,84.66
2023-09-06T03:30:29.705Z,84.64
2023-09-06T03:32:56.136Z,84.42
2023-09-06T03:35:22.564Z,84.65
2023-09-06T03:37:49.021Z,84.77
2023-09-06T03:40:15.465Z,84.59
2023-09-06T03:42:42.067Z,84.56
2023-09-06T03:45:08.449Z,84.73
2023-09-06T03:47:35.057Z,84.75
2023-09-06T03:50:01.688Z,84.46
2023-09-06T03:52:28.105Z,84.48
2023-09-06T03:54:54.491Z,84.57
2023-09-06T03:57:20.874Z,84.59
2023-09-06T03:59:47.389Z,84.43
2023-09-06T04:02:13.883Z,84.64
2023-09-06T04:04:40.450Z,84.53
2023-09-06T04:07:06.916Z,84.40
2023-09-06T04:09:33.322Z,84.58
2023-09-06T04:11:59.730Z,84.50
2023-09-06T04:14:26.179Z,84.35
2023-09-06T04:16:52.682Z,84.35
2023-09-06T04:19:19.084Z,84.63
2023-09-06T04:21:45.446Z,84.45
2023-09-06T04:24:12.067Z,84.59
2023-09-06T04:26:38.488Z,84.44
2023-09-06T04:29:05.120Z,84.47
2023-09-06T04:31:31.633Z,84.62
2023-09-06T04:33:58.287Z,84.69
2023-09-06T04:36:24.889Z,84.21
2023-09-06T04:38:51.261Z,84.47
2023-09-06T04:41:17.690Z,84.61
2023-09-06T04:43:44.600Z,84.50
2023-09-06T04:46:11.305Z,84.53
2023-09-06T04:48:38.453Z,84.43
2023-09-06T04:51:04.911Z,84.37
2023-09-06T04:53:31.604Z,84.59
2023-09-06T04:55:58.048Z,84.45
2023-09-06T05:01:11.928Z,84.45
2023-09-06T05:03:38.595Z,84.60
2023-09-06T05:06:05.371Z,84.57
2023-09-06T05:08:32.342Z,84.58
2023-09-06T05:10:58.953Z,84.28
2023-09-06T05:13:25.357Z,84.48
2023-09-06T05:15:51.732Z,84.46
2023-09-06T05:18:18.119Z,84.35
2023-09-06T05:20:44.503Z,84.30
2023-09-06T05:23:11.110Z,84.51
2023-09-06T05:25:37.558Z,84.54
2023-09-06T05:28:04.195Z,84.48
2023-09-06T05:30:31.066Z,84.84
2023-09-06T05:32:57.717Z,84.68
2023-09-06T05:35:24.357Z,84.46
2023-09-06T05:37:50.767Z,84.50
2023-09-06T05:40:17.176Z,84.84
2023-09-06T05:42:43.569Z,84.57
2023-09-06T05:45:09.958Z,84.59
2023-09-06T05:47:36.645Z,84.56
2023-09-06T05:50:03.120Z,84.80
2023-09-06T05:52:29.545Z,84.30
2023-09-06T05:54:56.089Z,84.72
2023-09-06T05:57:22.600Z,84.77
2023-09-06T05:59:49.067Z,84.80
2023-09-06T06:02:15.645Z,84.80
2023-09-06T06:04:42.179Z,84.62
2023-09-06T06:07:08.653Z,84.70
2023-09-06T06:09:35.307Z,84.73
2023-09-06T06:12:01.709Z,84.79
2023-09-06T06:14:30.501Z,84.59
2023-09-06T06:16:56.950Z,84.86
2023-09-06T06:19:23.383Z,84.53
2023-09-06T06:21:49.806Z,84.85
2023-09-06T06:24:16.513Z,84.50
2023-09-06T06:26:42.919Z,84.93
2023-09-06T06:29:09.570Z,84.63
2023-09-06T06:31:36.568Z,84.84
2023-09-06T06:34:03.011Z,84.43
2023-09-06T06:36:29.635Z,84.49
2023-09-06T06:38:56.026Z,84.66
2023-09-06T06:41:22.459Z,84.91
2023-09-06T06:43:48.946Z,84.80
2023-09-06T06:46:15.385Z,84.80
2023-09-06T06:48:42.602Z,84.56
2023-09-06T06:51:08.999Z,84.65
2023-09-06T06:53:35.390Z,84.64
2023-09-06T06:56:01.873Z,84.55
2023-09-06T06:58:29.027Z,84.67
2023-09-06T07:00:55.781Z,84.65
2023-09-06T07:03:22.316Z,84.70
2023-09-06T07:05:48.784Z,84.09
2023-09-06T07:08:15.187Z,84.79
2023-09-06T07:10:41.733Z,84.48
2023-09-06T07:13:08.156Z,84.91
2023-09-06T07:15:34.681Z,84.91
2023-09-06T07:18:01.710Z,84.97
2023-09-06T07:20:28.288Z,84.86
2023-09-06T07:22:54.720Z,84.92
2023-09-06T07:25:21.348Z,84.95
2023-09-06T07:27:47.767Z,84.67
2023-09-06T07:30:14.177Z,84.69
2023-09-06T07:32:40.596Z,85.18
2023-09-06T07:35:07.073Z,85.02
2023-09-06T07:37:33.631Z,85.33
2023-09-06T07:40:00.055Z,85.47
2023-09-06T07:42:27.479Z,85.66
2023-09-06T07:44:53.861Z,85.67
2023-09-06T07:47:20.369Z,85.81
2023-09-06T07:49:46.899Z,85.79
2023-09-06T07:52:13.321Z,85.99
2023-09-06T07:54:39.708Z,85.71
2023-09-06T07:57:06.142Z,85.80
2023-09-06T07:59:32.797Z,85.76
2023-09-06T08:01:59.244Z,85.84
2023-09-06T08:04:25.724Z,86.02
2023-09-06T08:06:52.330Z,86.08
2023-09-06T08:09:18.887Z,86.09
2023-09-06T08:11:48.272Z,85.72
2023-09-06T08:14:14.698Z,86.06
2023-09-06T08:16:41.177Z,85.78
2023-09-06T08:19:07.730Z,86.01
2023-09-06T08:21:34.168Z,86.34
2023-09-06T08:24:00.588Z,85.99
2023-09-06T08:26:27.020Z,85.78
2023-09-06T08:28:53.468Z,86.28
2023-09-06T08:31:19.955Z,85.91
2023-09-06T08:33:46.504Z,85.90
2023-09-06T08:36:13.357Z,85.50
2023-09-06T08:38:39.837Z,85.80
2023-09-06T08:41:06.217Z,84.99
2023-09-06T08:43:32.631Z,85.09
2023-09-06T08:45:59.322Z,85.38
2023-09-06T08:48:26.089Z,84.84
2023-09-06T08:50:55.016Z,85.11
2023-09-06T08:53:22.894Z,85.00
2023-09-06T08:55:49.329Z,84.99
2023-09-06T08:58:15.946Z,84.94
2023-09-06T09:00:42.388Z,85.29
2023-09-06T09:03:08.880Z,85.03
2023-09-06T09:05:35.406Z,84.48
2023-09-06T09:08:01.938Z,84.81
2023-09-06T09:10:28.570Z,84.81
2023-09-06T09:12:55.228Z,84.43
2023-09-06T09:15:24.081Z,84.59
2023-09-06T09:18:00.308Z,84.72
2023-09-06T09:20:28.813Z,84.51
2023-09-06T09:22:55.519Z,84.30
2023-09-06T09:25:21.914Z,84.06
2023-09-06T09:27:48.519Z,83.89
2023-09-06T09:30:15.143Z,83.76
2023-09-06T09:32:41.588Z,83.66
2023-09-06T09:35:08.021Z,83.56
2023-09-06T09:37:36.860Z,83.49
2023-09-06T09:40:04.145Z,83.38
2023-09-06T09:42:30.590Z,83.53
2023-09-06T09:44:57.450Z,83.46
2023-09-06T09:47:43.827Z,83.56
2023-09-06T09:50:10.486Z,83.50
2023-09-06T09:52:36.910Z,83.32
2023-09-06T09:55:03.358Z,83.41
2023-09-06T09:57:30.004Z,83.23
2023-09-06T09:59:56.468Z,82.87
2023-09-06T10:02:35.047Z,83.39
2023-09-06T10:05:06.880Z,83.67
2023-09-06T10:07:48.382Z,84.20
2023-09-06T10:10:16.182Z,84.32
2023-09-06T10:12:42.818Z,83.53
2023-09-06T10:15:09.248Z,83.47
2023-09-06T10:17:35.670Z,84.78
2023-09-06T10:20:02.104Z,84.30
2023-09-06T10:22:28.503Z,85.71
2023-09-06T10:24:54.926Z,84.77
2023-09-06T10:27:21.356Z,84.12
2023-09-06T10:29:58.066Z,84.35
2023-09-06T10:32:30.184Z,83.72
2023-09-06T10:34:56.645Z,84.74
2023-09-06T10:37:23.277Z,84.80
2023-09-06T10:39:49.769Z,84.62
2023-09-06T10:42:16.404Z,85.92
2023-09-06T10:44:43.814Z,84.34
2023-09-06T10:47:10.765Z,84.57
2023-09-06T10:49:37.191Z,84.23
2023-09-06T10:52:04.741Z,85.58
2023-09-06T10:54:31.620Z,85.28
2023-09-06T10:56:58.080Z,84.17
2023-09-06T10:59:24.513Z,84.74
2023-09-06T11:01:56.073Z,85.13
2023-09-06T11:04:23.046Z,84.89
2023-09-06T11:06:49.496Z,85.13
2023-09-06T11:09:15.957Z,86.22
2023-09-06T11:11:42.349Z,86.92
2023-09-06T11:14:08.830Z,87.06
2023-09-06T11:16:35.234Z,87.48
2023-09-06T11:19:01.612Z,87.73
2023-09-06T11:21:28.073Z,87.78
2023-09-06T11:23:54.462Z,88.04
2023-09-06T11:26:20.933Z,87.80
2023-09-06T11:28:47.427Z,88.20
2023-09-06T11:31:13.965Z,87.90
2023-09-06T11:33:40.400Z,86.57
2023-09-06T11:36:07.397Z,87.66
2023-09-06T11:38:33.831Z,85.24
2023-09-06T11:41:00.253Z,85.21
2023-09-06T11:43:26.729Z,85.70
2023-09-06T11:45:53.164Z,85.42
2023-09-06T11:48:19.787Z,86.03
2023-09-06T11:50:46.202Z,84.83
2023-09-06T11:53:12.865Z,85.05
2023-09-06T11:55:39.291Z,85.60
2023-09-06T11:58:05.688Z,85.72
2023-09-06T12:00:32.143Z,85.41
2023-09-06T12:02:58.717Z,85.22
2023-09-06T12:05:34.910Z,84.81
2023-09-06T12:08:09.025Z,84.73
2023-09-06T12:10:35.414Z,84.68
2023-09-06T12:13:02.086Z,85.60
2023-09-06T12:15:28.688Z,86.53
2023-09-06T12:17:55.185Z,86.63
2023-09-06T12:20:21.759Z,84.75
2023-09-06T12:22:48.200Z,85.83
2023-09-06T12:25:14.608Z,84.91
2023-09-06T12:27:41.009Z,85.56
2023-09-06T12:30:08.718Z,85.54
2023-09-06T12:32:35.388Z,85.13
2023-09-06T12:35:01.961Z,85.25
2023-09-06T12:37:28.363Z,85.23
2023-09-06T12:39:54.784Z,86.72
2023-09-06T12:42:21.175Z,84.62
2023-09-06T12:44:47.788Z,85.20
2023-09-06T12:47:14.245Z,84.86
2023-09-06T12:49:40.649Z,84.60
2023-09-06T12:52:07.048Z,86.19
2023-09-06T12:54:33.458Z,86.94
2023-09-06T12:57:00.128Z,87.24
2023-09-06T12:59:26.574Z,88.33
2023-09-06T13:01:53.043Z,88.10
2023-09-06T13:04:20.091Z,88.11
2023-09-06T13:06:46.793Z,86.09
2023-09-06T13:09:13.221Z,87.96
2023-09-06T13:11:39.646Z,86.42
2023-09-06T13:14:06.301Z,88.01
2023-09-06T13:16:32.799Z,86.27
2023-09-06T13:18:59.349Z,88.27
2023-09-06T13:21:25.841Z,85.91
2023-09-06T13:23:52.469Z,85.20
2023-09-06T13:26:19.100Z,85.46
2023-09-06T13:28:45.736Z,85.85
2023-09-06T13:31:12.292Z,86.20
2023-09-06T13:33:39.243Z,87.58
2023-09-06T13:36:06.043Z,85.02
2023-09-06T13:38:32.448Z,85.52
2023-09-06T13:40:58.843Z,85.76
2023-09-06T13:43:25.262Z,85.38
2023-09-06T13:45:51.698Z,86.52
2023-09-06T13:48:18.424Z,87.81
2023-09-06T13:50:44.953Z,87.68
2023-09-06T13:53:11.348Z,85.66
2023-09-06T13:55:37.981Z,86.51
2023-09-06T13:58:04.671Z,87.42
2023-09-06T14:00:31.110Z,85.65
2023-09-06T14:02:57.665Z,86.41
2023-09-06T14:05:24.508Z,87.99
2023-09-06T14:07:50.950Z,86.86
2023-09-06T14:10:17.614Z,88.02
2023-09-06T14:12:44.005Z,87.93
2023-09-06T14:15:10.406Z,87.88
2023-09-06T14:17:36.853Z,86.15
2023-09-06T14:20:03.267Z,85.70
2023-09-06T14:22:29.691Z,87.50
2023-09-06T14:24:56.065Z,85.60
2023-09-06T14:27:22.473Z,85.90
2023-09-06T14:29:48.882Z,85.62
2023-09-06T14:32:15.683Z,86.55
2023-09-06T14:34:42.117Z,86.56
2023-09-06T14:37:08.629Z,87.85
2023-09-06T14:39:35.090Z,87.02
2023-09-06T14:42:01.726Z,89.34
2023-09-06T14:44:28.190Z,89.56
2023-09-06T14:46:54.674Z,89.00
2023-09-06T14:49:21.139Z,86.21
2023-09-06T14:51:47.543Z,88.24
2023-09-06T14:54:14.043Z,86.88
2023-09-06T14:56:40.553Z,87.46
2023-09-06T14:59:07.252Z,87.27
2023-09-06T15:01:33.725Z,89.63
2023-09-06T15:04:00.269Z,86.91
2023-09-06T15:06:31.531Z,86.60
2023-09-06T15:09:05.860Z,88.41
2023-09-06T15:11:32.323Z,89.47
2023-09-06T15:13:58.748Z,89.34
2023-09-06T15:16:25.184Z,87.18
2023-09-06T15:18:51.675Z,86.73
2023-09-06T15:21:18.151Z,88.47
2023-09-06T15:23:44.591Z,86.06
2023-09-06T15:26:11.256Z,87.93
2023-09-06T15:28:37.878Z,87.78
2023-09-06T15:31:04.562Z,86.93
2023-09-06T15:33:31.123Z,87.13
2023-09-06T15:35:57.581Z,87.27
2023-09-06T15:38:24.056Z,86.99
2023-09-06T15:40:50.672Z,87.90
2023-09-06T15:43:17.043Z,86.46
2023-09-06T15:45:43.651Z,87.08
2023-09-06T15:48:12.924Z,89.41
2023-09-06T15:50:39.403Z,87.13
2023-09-06T15:53:05.885Z,85.74
2023-09-06T15:55:32.522Z,87.06
2023-09-06T15:58:01.571Z,86.16
2023-09-06T16:00:32.841Z,86.56
2023-09-06T16:03:00.270Z,86.46
2023-09-06T16:05:27.134Z,86.83
2023-09-06T16:07:53.887Z,87.27
2023-09-06T16:10:20.524Z,86.36
2023-09-06T16:12:49.412Z,85.71
2023-09-06T16:15:16.329Z,86.69
2023-09-06T16:17:42.845Z,86.67
2023-09-06T16:20:09.351Z,86.14
2023-09-06T16:22:35.728Z,87.46
2023-09-06T16:25:02.140Z,85.61
2023-09-06T16:27:28.797Z,86.25
2023-09-06T16:29:55.300Z,86.63
2023-09-06T16:32:21.892Z,85.54
2023-09-06T16:34:48.545Z,86.63
2023-09-06T16:37:14.959Z,85.95
2023-09-06T16:39:41.442Z,85.65
2023-09-06T16:42:07.866Z,86.71
2023-09-06T16:44:34.275Z,86.35
2023-09-06T16:47:00.802Z,87.50
2023-09-06T16:49:27.358Z,86.29
2023-09-06T16:51:54.283Z,86.85
2023-09-06T16:54:20.740Z,86.78
2023-09-06T16:56:47.136Z,87.53
2023-09-06T16:59:13.606Z,87.41
2023-09-06T17:01:40.096Z,88.41
2023-09-06T17:04:06.702Z,89.50
2023-09-06T17:06:33.176Z,85.94
2023-09-06T17:08:59.620Z,85.66
2023-09-06T17:11:26.069Z,86.33
2023-09-06T17:13:52.689Z,86.99
2023-09-06T17:16:19.213Z,86.24
2023-09-06T17:18:46.111Z,86.20
2023-09-06T17:21:12.602Z,86.15
2023-09-06T17:23:49.653Z,86.65
2023-09-06T17:26:23.768Z,87.07
2023-09-06T17:28:50.156Z,87.38
2023-09-06T17:31:16.574Z,87.40
2023-09-06T17:33:42.993Z,87.46
2023-09-06T17:36:09.586Z,87.51
2023-09-06T17:38:36.201Z,87.34
2023-09-06T17:41:02.643Z,87.24
2023-09-06T17:43:29.797Z,87.07
2023-09-06T17:45:56.211Z,87.15
2023-09-06T17:48:22.814Z,87.37
2023-09-06T17:50:49.365Z,87.28
2023-09-06T17:53:15.839Z,87.18
2023-09-06T17:55:42.319Z,87.27
2023-09-06T17:58:08.729Z,87.16
2023-09-06T18:00:35.117Z,87.13
2023-09-06T18:03:01.696Z,87.04
2023-09-06T18:05:28.660Z,87.00
2023-09-06T18:07:55.306Z,86.98
2023-09-06T18:10:21.725Z,86.96
2023-09-06T18:12:48.118Z,86.73
2023-09-06T18:15:14.550Z,86.63
2023-09-06T18:17:41.006Z,86.89
2023-09-06T18:20:07.521Z,86.90
2023-09-06T18:22:33.954Z,86.25
2023-09-06T18:25:00.578Z,86.33
2023-09-06T18:27:26.998Z,86.27
2023-09-06T18:29:53.389Z,86.44
2023-09-06T18:32:19.876Z,86.39
2023-09-06T18:34:46.381Z,85.65
2023-09-06T18:37:12.846Z,85.84
2023-09-06T18:39:39.515Z,85.97
2023-09-06T18:42:05.959Z,85.49
2023-09-06T18:44:32.358Z,85.91
2023-09-06T18:46:58.816Z,85.66
2023-09-06T18:49:25.557Z,86.15
2023-09-06T18:51:51.956Z,85.75
2023-09-06T18:54:18.342Z,85.51
2023-09-06T18:56:44.728Z,85.38
2023-09-06T18:59:11.329Z,85.97
2023-09-06T19:01:37.942Z,85.10
2023-09-06T19:04:04.632Z,85.44
2023-09-06T19:06:31.017Z,85.44
2023-09-06T19:08:57.635Z,85.44
2023-09-06T19:11:26.710Z,85.07
2023-09-06T19:13:53.391Z,85.80
2023-09-06T19:16:19.866Z,86.01
2023-09-06T19:18:46.266Z,85.35
2023-09-06T19:21:12.674Z,84.99
2023-09-06T19:23:39.119Z,85.91
2023-09-06T19:26:05.554Z,85.39
2023-09-06T19:28:32.438Z,86.05
2023-09-06T19:30:59.182Z,85.84
2023-09-06T19:33:25.911Z,85.82
2023-09-06T19:35:52.367Z,85.51
2023-09-06T19:38:21.608Z,85.74
2023-09-06T19:40:49.193Z,85.83
2023-09-06T19:43:15.576Z,85.87
2023-09-06T19:45:41.993Z,86.00
2023-09-06T19:48:08.404Z,85.40
2023-09-06T19:50:35.193Z,85.45
2023-09-06T19:53:06.229Z,85.19
2023-09-06T19:55:32.680Z,85.70
2023-09-06T19:57:59.099Z,85.36
2023-09-06T20:00:25.515Z,85.57
2023-09-06T20:02:52.071Z,84.79
2023-09-06T20:05:18.684Z,85.70
2023-09-06T20:07:45.137Z,85.40
2023-09-06T20:10:11.536Z,85.80
2023-09-06T20:12:37.942Z,85.97
2023-09-06T20:15:04.342Z,85.89
2023-09-06T20:17:30.810Z,85.48
2023-09-06T20:19:57.356Z,85.45
2023-09-06T20:22:24.534Z,84.92
2023-09-06T20:24:50.929Z,85.31
2023-09-06T20:27:17.331Z,85.60
2023-09-06T20:29:43.967Z,85.80
2023-09-06T20:32:10.395Z,85.31
2023-09-06T20:34:36.842Z,85.74
2023-09-06T20:37:03.251Z,84.83
2023-09-06T20:39:29.834Z,84.95
2023-09-06T20:41:56.239Z,85.63
2023-09-06T20:44:22.897Z,85.60
2023-09-06T20:46:49.313Z,84.42
2023-09-06T20:49:15.712Z,85.05
2023-09-06T20:51:42.116Z,83.96
2023-09-06T20:54:08.512Z,84.37
2023-09-06T20:56:34.938Z,84.23
2023-09-06T20:59:01.360Z,83.98
2023-09-06T21:01:27.848Z,84.29
2023-09-06T21:03:54.384Z,83.96
2023-09-06T21:06:21.437Z,84.34
2023-09-06T21:08:47.913Z,84.04
2023-09-06T21:11:14.421Z,84.10
2023-09-06T21:13:40.877Z,84.30
2023-09-06T21:16:07.289Z,84.37
2023-09-06T21:18:33.852Z,84.50
2023-09-06T21:21:00.593Z,85.45
2023-09-06T21:23:27.239Z,85.11
2023-09-06T21:25:53.616Z,84.86
2023-09-06T21:28:20.239Z,84.40
2023-09-06T21:30:46.647Z,85.24
2023-09-06T21:33:13.339Z,84.23
2023-09-06T21:35:39.776Z,83.86
2023-09-06T21:38:06.164Z,83.67
2023-09-06T21:40:32.568Z,83.71
2023-09-06T21:43:14.574Z,84.34
2023-09-06T21:45:44.060Z,84.96
2023-09-06T21:48:10.562Z,84.04
2023-09-06T21:50:37.331Z,84.14
2023-09-06T21:53:03.748Z,84.76
2023-09-06T21:55:30.139Z,83.60
2023-09-06T21:58:08.600Z,84.54
2023-09-06T22:00:36.497Z,85.00
2023-09-06T22:03:03.241Z,84.38
2023-09-06T22:05:29.765Z,84.25
2023-09-06T22:07:56.166Z,83.59
2023-09-06T22:10:22.809Z,83.70
2023-09-06T22:12:49.555Z,83.92
2023-09-06T22:15:16.044Z,84.19
2023-09-06T22:17:42.505Z,83.81
2023-09-06T22:20:09.179Z,83.43
2023-09-06T22:22:35.603Z,83.95
2023-09-06T22:25:02.133Z,84.48
2023-09-06T22:27:28.607Z,84.11
2023-09-06T22:29:55.376Z,84.26
2023-09-06T22:32:21.751Z,84.03
2023-09-06T22:34:48.129Z,83.98
2023-09-06T22:37:14.622Z,83.76
2023-09-06T22:39:41.239Z,83.63
2023-09-06T22:42:07.615Z,83.28
2023-09-06T22:44:34.016Z,83.51
2023-09-06T22:47:00.475Z,83.74
2023-09-06T22:49:27.267Z,83.20
2023-09-06T22:51:53.790Z,83.67
2023-09-06T22:54:20.262Z,83.18
2023-09-06T22:56:46.678Z,83.20
2023-09-06T22:59:13.080Z,82.84
2023-09-06T23:01:39.761Z,83.02
2023-09-06T23:04:06.299Z,82.65
2023-09-06T23:06:32.991Z,82.75
2023-09-06T23:08:59.397Z,82.87
2023-09-06T23:11:25.828Z,82.78
2023-09-06T23:13:52.235Z,82.71
2023-09-06T23:16:19.412Z,82.61
2023-09-06T23:18:46.059Z,82.47
2023-09-06T23:21:12.443Z,83.50
2023-09-06T23:23:39.041Z,82.56
2023-09-06T23:26:05.524Z,83.18
2023-09-06T23:28:32.399Z,82.74
2023-09-06T23:30:58.998Z,82.52
2023-09-06T23:33:25.420Z,82.89
2023-09-06T23:35:51.825Z,82.65
2023-09-06T23:41:05.460Z,82.90
2023-09-06T23:43:31.898Z,82.87
2023-09-06T23:45:58.339Z,83.13
2023-09-06T23:48:24.777Z,83.09
2023-09-06T23:50:51.157Z,82.86
2023-09-06T23:53:17.533Z,82.45
2023-09-06T23:55:43.927Z,82.27
2023-09-06T23:58:10.337Z,82.69
